sensor_id;sensor_type;location;lat;lon;timestamp;temperature;humidity
37788;DHT22;23627;53.302;-6.362;2023-01-15T00:23:36;3.80;99.90
37788;DHT22;23627;53.302;-6.362;2023-01-15T00:26:21;3.70;99.90
37788;DHT22;23627;53.302;-6.362;2023-01-15T00:29:05;3.70;99.90
37788;DHT22;23627;53.302;-6.362;2023-01-15T00:31:32;3.70;99.90
37788;DHT22;23627;53.302;-6.362;2023-01-15T00:34:00;3.70;99.90
37788;DHT22;23627;53.302;-6.362;2023-01-15T00:36:25;3.70;99.90
37788;DHT22;23627;53.302;-6.362;2023-01-15T00:59:34;3.70;99.90
37788;DHT22;23627;53.302;-6.362;2023-01-15T01:01:59;3.70;99.90
37788;DHT22;23627;53.302;-6.362;2023-01-15T01:04:25;3.70;99.90
37788;DHT22;23627;53.302;-6.362;2023-01-15T01:06:50;3.70;99.90
37788;DHT22;23627;53.302;-6.362;2023-01-15T01:09:16;3.70;99.90
37788;DHT22;23627;53.302;-6.362;2023-01-15T01:11:42;3.70;99.90
37788;DHT22;23627;53.302;-6.362;2023-01-15T01:14:08;3.70;99.90
37788;DHT22;23627;53.302;-6.362;2023-01-15T01:16:35;3.70;99.90
37788;DHT22;23627;53.302;-6.362;2023-01-15T01:19:06;3.70;99.90
37788;DHT22;23627;53.302;-6.362;2023-01-15T01:21:33;3.70;99.90
37788;DHT22;23627;53.302;-6.362;2023-01-15T01:23:59;3.70;99.90
37788;DHT22;23627;53.302;-6.362;2023-01-15T01:26:26;3.70;99.90
37788;DHT22;23627;53.302;-6.362;2023-01-15T01:28:52;3.70;99.90
37788;DHT22;23627;53.302;-6.362;2023-01-15T01:31:18;3.80;99.90
37788;DHT22;23627;53.302;-6.362;2023-01-15T01:33:44;3.80;99.90
37788;DHT22;23627;53.302;-6.362;2023-01-15T01:36:09;3.80;99.90
37788;DHT22;23627;53.302;-6.362;2023-01-15T01:38:35;3.80;99.90
37788;DHT22;23627;53.302;-6.362;2023-01-15T01:41:00;3.80;99.90
37788;DHT22;23627;53.302;-6.362;2023-01-15T01:43:27;3.80;99.90
37788;DHT22;23627;53.302;-6.362;2023-01-15T01:45:53;3.80;99.90
37788;DHT22;23627;53.302;-6.362;2023-01-15T01:48:20;3.80;99.90
37788;DHT22;23627;53.302;-6.362;2023-01-15T01:50:47;3.80;99.90
37788;DHT22;23627;53.302;-6.362;2023-01-15T01:53:15;3.80;99.90
37788;DHT22;23627;53.302;-6.362;2023-01-15T01:55:42;3.80;99.90
37788;DHT22;23627;53.302;-6.362;2023-01-15T01:58:08;3.80;99.90
37788;DHT22;23627;53.302;-6.362;2023-01-15T02:00:35;3.80;99.90
37788;DHT22;23627;53.302;-6.362;2023-01-15T02:03:01;3.80;99.90
37788;DHT22;23627;53.302;-6.362;2023-01-15T02:05:30;3.80;99.90
37788;DHT22;23627;53.302;-6.362;2023-01-15T02:07:56;3.80;99.90
37788;DHT22;23627;53.302;-6.362;2023-01-15T02:10:22;3.80;99.90
37788;DHT22;23627;53.302;-6.362;2023-01-15T02:12:51;3.80;99.90
37788;DHT22;23627;53.302;-6.362;2023-01-15T02:15:42;3.80;99.90
37788;DHT22;23627;53.302;-6.362;2023-01-15T02:18:08;3.80;99.90
37788;DHT22;23627;53.302;-6.362;2023-01-15T02:20:53;3.80;99.90
37788;DHT22;23627;53.302;-6.362;2023-01-15T02:23:27;3.80;99.90
37788;DHT22;23627;53.302;-6.362;2023-01-15T02:26:00;3.80;99.90
37788;DHT22;23627;53.302;-6.362;2023-01-15T02:28:27;3.80;99.90
37788;DHT22;23627;53.302;-6.362;2023-01-15T02:30:58;3.80;99.90
37788;DHT22;23627;53.302;-6.362;2023-01-15T02:33:29;3.80;99.90
37788;DHT22;23627;53.302;-6.362;2023-01-15T02:35:56;3.80;99.90
37788;DHT22;23627;53.302;-6.362;2023-01-15T02:38:27;3.80;99.90
37788;DHT22;23627;53.302;-6.362;2023-01-15T02:40:55;3.80;99.90
37788;DHT22;23627;53.302;-6.362;2023-01-15T02:48:33;3.80;99.90
37788;DHT22;23627;53.302;-6.362;2023-01-15T02:51:02;3.80;99.90
37788;DHT22;23627;53.302;-6.362;2023-01-15T02:53:31;3.80;99.90
37788;DHT22;23627;53.302;-6.362;2023-01-15T02:55:58;3.80;99.90
37788;DHT22;23627;53.302;-6.362;2023-01-15T02:58:29;3.80;99.90
37788;DHT22;23627;53.302;-6.362;2023-01-15T03:00:57;3.80;99.90
37788;DHT22;23627;53.302;-6.362;2023-01-15T03:03:30;3.80;99.90
37788;DHT22;23627;53.302;-6.362;2023-01-15T03:06:10;3.90;99.90
37788;DHT22;23627;53.302;-6.362;2023-01-15T03:08:37;3.80;99.90
37788;DHT22;23627;53.302;-6.362;2023-01-15T03:13:36;3.90;99.90
37788;DHT22;23627;53.302;-6.362;2023-01-15T03:16:24;3.90;99.90
37788;DHT22;23627;53.302;-6.362;2023-01-15T04:27:18;4.00;99.90
37788;DHT22;23627;53.302;-6.362;2023-01-15T04:29:44;4.00;99.90
37788;DHT22;23627;53.302;-6.362;2023-01-15T04:32:09;4.00;99.90
37788;DHT22;23627;53.302;-6.362;2023-01-15T04:34:35;4.00;99.90
37788;DHT22;23627;53.302;-6.362;2023-01-15T04:37:00;4.00;99.90
37788;DHT22;23627;53.302;-6.362;2023-01-15T04:39:26;4.00;99.90
37788;DHT22;23627;53.302;-6.362;2023-01-15T04:41:52;4.00;99.90
37788;DHT22;23627;53.302;-6.362;2023-01-15T04:44:36;4.00;99.90
37788;DHT22;23627;53.302;-6.362;2023-01-15T04:47:02;4.00;99.90
37788;DHT22;23627;53.302;-6.362;2023-01-15T04:49:27;4.00;99.90
37788;DHT22;23627;53.302;-6.362;2023-01-15T04:51:53;4.00;99.90
37788;DHT22;23627;53.302;-6.362;2023-01-15T04:54:19;4.00;99.90
37788;DHT22;23627;53.302;-6.362;2023-01-15T04:56:48;4.00;99.90
37788;DHT22;23627;53.302;-6.362;2023-01-15T04:59:15;4.00;99.90
37788;DHT22;23627;53.302;-6.362;2023-01-15T05:01:41;4.00;99.90
37788;DHT22;23627;53.302;-6.362;2023-01-15T05:04:06;4.00;99.90
37788;DHT22;23627;53.302;-6.362;2023-01-15T05:06:32;4.00;99.90
37788;DHT22;23627;53.302;-6.362;2023-01-15T05:14:09;4.00;99.90
37788;DHT22;23627;53.302;-6.362;2023-01-15T05:16:34;4.00;99.90
37788;DHT22;23627;53.302;-6.362;2023-01-15T05:19:01;4.00;99.90
37788;DHT22;23627;53.302;-6.362;2023-01-15T05:21:28;4.00;99.90
37788;DHT22;23627;53.302;-6.362;2023-01-15T05:23:56;4.00;99.90
37788;DHT22;23627;53.302;-6.362;2023-01-15T05:26:22;4.00;99.90
37788;DHT22;23627;53.302;-6.362;2023-01-15T05:28:48;4.00;99.90
37788;DHT22;23627;53.302;-6.362;2023-01-15T05:31:15;4.00;99.90
37788;DHT22;23627;53.302;-6.362;2023-01-15T05:33:41;4.00;99.90
37788;DHT22;23627;53.302;-6.362;2023-01-15T05:36:08;4.00;99.90
37788;DHT22;23627;53.302;-6.362;2023-01-15T05:38:34;4.00;99.90
37788;DHT22;23627;53.302;-6.362;2023-01-15T05:41:03;4.00;99.90
37788;DHT22;23627;53.302;-6.362;2023-01-15T05:43:49;3.90;99.90
37788;DHT22;23627;53.302;-6.362;2023-01-15T05:46:14;4.00;99.90
37788;DHT22;23627;53.302;-6.362;2023-01-15T05:48:40;3.90;99.90
37788;DHT22;23627;53.302;-6.362;2023-01-15T05:51:06;4.00;99.90
37788;DHT22;23627;53.302;-6.362;2023-01-15T05:53:31;4.00;99.90
37788;DHT22;23627;53.302;-6.362;2023-01-15T05:56:05;3.90;99.90
37788;DHT22;23627;53.302;-6.362;2023-01-15T05:58:31;4.00;99.90
37788;DHT22;23627;53.302;-6.362;2023-01-15T06:00:56;4.00;99.90
37788;DHT22;23627;53.302;-6.362;2023-01-15T06:03:22;4.00;99.90
37788;DHT22;23627;53.302;-6.362;2023-01-15T06:05:52;4.00;99.90
37788;DHT22;23627;53.302;-6.362;2023-01-15T06:08:18;4.00;99.90
37788;DHT22;23627;53.302;-6.362;2023-01-15T06:10:44;4.00;99.90
37788;DHT22;23627;53.302;-6.362;2023-01-15T06:13:10;4.00;99.90
37788;DHT22;23627;53.302;-6.362;2023-01-15T06:15:36;3.90;99.90
37788;DHT22;23627;53.302;-6.362;2023-01-15T06:18:01;4.00;99.90
37788;DHT22;23627;53.302;-6.362;2023-01-15T06:20:27;4.00;99.90
37788;DHT22;23627;53.302;-6.362;2023-01-15T06:22:52;4.00;99.90
37788;DHT22;23627;53.302;-6.362;2023-01-15T06:25:18;4.00;99.90
37788;DHT22;23627;53.302;-6.362;2023-01-15T06:27:43;4.00;99.90
37788;DHT22;23627;53.302;-6.362;2023-01-15T06:30:10;4.00;99.90
37788;DHT22;23627;53.302;-6.362;2023-01-15T06:32:35;4.00;99.90
37788;DHT22;23627;53.302;-6.362;2023-01-15T07:18:16;4.30;99.90
37788;DHT22;23627;53.302;-6.362;2023-01-15T07:21:09;4.30;99.90
37788;DHT22;23627;53.302;-6.362;2023-01-15T07:52:31;4.50;99.90
37788;DHT22;23627;53.302;-6.362;2023-01-15T07:55:03;4.40;99.90
37788;DHT22;23627;53.302;-6.362;2023-01-15T07:57:29;4.40;99.90
37788;DHT22;23627;53.302;-6.362;2023-01-15T07:59:55;4.40;99.90
37788;DHT22;23627;53.302;-6.362;2023-01-15T08:02:21;4.40;99.90
37788;DHT22;23627;53.302;-6.362;2023-01-15T08:04:46;4.40;99.90
37788;DHT22;23627;53.302;-6.362;2023-01-15T08:07:12;4.40;99.90
37788;DHT22;23627;53.302;-6.362;2023-01-15T08:09:38;4.40;99.90
37788;DHT22;23627;53.302;-6.362;2023-01-15T08:12:04;4.40;99.90
37788;DHT22;23627;53.302;-6.362;2023-01-15T08:14:49;4.40;99.90
37788;DHT22;23627;53.302;-6.362;2023-01-15T08:17:34;4.40;99.90
37788;DHT22;23627;53.302;-6.362;2023-01-15T08:20:00;4.40;99.90
37788;DHT22;23627;53.302;-6.362;2023-01-15T08:22:25;4.40;99.90
37788;DHT22;23627;53.302;-6.362;2023-01-15T08:24:51;4.40;99.90
37788;DHT22;23627;53.302;-6.362;2023-01-15T08:27:16;4.50;99.90
37788;DHT22;23627;53.302;-6.362;2023-01-15T08:29:42;4.50;99.90
37788;DHT22;23627;53.302;-6.362;2023-01-15T08:32:08;4.40;99.90
37788;DHT22;23627;53.302;-6.362;2023-01-15T08:34:33;4.40;99.90
37788;DHT22;23627;53.302;-6.362;2023-01-15T08:36:59;4.40;99.90
37788;DHT22;23627;53.302;-6.362;2023-01-15T08:39:25;4.40;99.90
37788;DHT22;23627;53.302;-6.362;2023-01-15T08:41:51;4.50;99.90
37788;DHT22;23627;53.302;-6.362;2023-01-15T08:44:17;4.50;99.90
37788;DHT22;23627;53.302;-6.362;2023-01-15T08:46:42;4.50;99.90
37788;DHT22;23627;53.302;-6.362;2023-01-15T08:49:11;4.50;99.90
37788;DHT22;23627;53.302;-6.362;2023-01-15T08:51:37;4.40;99.90
37788;DHT22;23627;53.302;-6.362;2023-01-15T08:54:03;4.50;99.90
37788;DHT22;23627;53.302;-6.362;2023-01-15T08:56:29;4.50;99.90
37788;DHT22;23627;53.302;-6.362;2023-01-15T08:58:54;4.50;99.90
37788;DHT22;23627;53.302;-6.362;2023-01-15T09:01:20;4.50;99.90
37788;DHT22;23627;53.302;-6.362;2023-01-15T09:03:45;4.50;99.90
37788;DHT22;23627;53.302;-6.362;2023-01-15T09:06:11;4.50;99.90
37788;DHT22;23627;53.302;-6.362;2023-01-15T09:08:38;4.50;99.90
37788;DHT22;23627;53.302;-6.362;2023-01-15T09:11:04;4.50;99.90
37788;DHT22;23627;53.302;-6.362;2023-01-15T09:13:30;4.50;99.90
37788;DHT22;23627;53.302;-6.362;2023-01-15T09:15:59;4.60;99.90
37788;DHT22;23627;53.302;-6.362;2023-01-15T09:18:25;4.60;99.90
37788;DHT22;23627;53.302;-6.362;2023-01-15T09:20:51;4.60;99.90
37788;DHT22;23627;53.302;-6.362;2023-01-15T09:23:16;4.60;99.90
37788;DHT22;23627;53.302;-6.362;2023-01-15T09:28:17;4.60;99.90
37788;DHT22;23627;53.302;-6.362;2023-01-15T09:30:42;4.60;99.90
37788;DHT22;23627;53.302;-6.362;2023-01-15T09:33:08;4.60;99.90
37788;DHT22;23627;53.302;-6.362;2023-01-15T09:35:35;4.60;99.90
37788;DHT22;23627;53.302;-6.362;2023-01-15T09:38:01;4.70;99.90
37788;DHT22;23627;53.302;-6.362;2023-01-15T09:43:01;4.70;99.90
37788;DHT22;23627;53.302;-6.362;2023-01-15T09:45:30;4.70;99.90
37788;DHT22;23627;53.302;-6.362;2023-01-15T09:48:05;4.70;99.90
37788;DHT22;23627;53.302;-6.362;2023-01-15T09:50:38;4.70;99.90
37788;DHT22;23627;53.302;-6.362;2023-01-15T09:55:33;4.70;99.90
37788;DHT22;23627;53.302;-6.362;2023-01-15T09:58:01;4.80;99.90
37788;DHT22;23627;53.302;-6.362;2023-01-15T10:00:39;4.80;99.90
37788;DHT22;23627;53.302;-6.362;2023-01-15T10:05:49;4.80;99.90
37788;DHT22;23627;53.302;-6.362;2023-01-15T10:08:19;4.80;99.90
37788;DHT22;23627;53.302;-6.362;2023-01-15T10:10:51;4.80;99.90
37788;DHT22;23627;53.302;-6.362;2023-01-15T10:16:03;4.90;99.90
37788;DHT22;23627;53.302;-6.362;2023-01-15T10:18:28;5.00;99.90
37788;DHT22;23627;53.302;-6.362;2023-01-15T10:20:58;5.00;99.90
37788;DHT22;23627;53.302;-6.362;2023-01-15T10:28:30;5.10;99.90
37788;DHT22;23627;53.302;-6.362;2023-01-15T10:31:02;5.10;99.90
37788;DHT22;23627;53.302;-6.362;2023-01-15T10:36:17;5.20;99.90
37788;DHT22;23627;53.302;-6.362;2023-01-15T10:38:53;5.20;99.90
37788;DHT22;23627;53.302;-6.362;2023-01-15T10:41:26;5.20;99.90
37788;DHT22;23627;53.302;-6.362;2023-01-15T10:46:23;5.30;99.90
37788;DHT22;23627;53.302;-6.362;2023-01-15T10:48:55;5.20;99.90
37788;DHT22;23627;53.302;-6.362;2023-01-15T10:59:30;5.30;99.90
37788;DHT22;23627;53.302;-6.362;2023-01-15T11:01:57;5.30;99.90
37788;DHT22;23627;53.302;-6.362;2023-01-15T11:04:24;5.30;99.90
37788;DHT22;23627;53.302;-6.362;2023-01-15T11:06:50;5.30;99.90
37788;DHT22;23627;53.302;-6.362;2023-01-15T11:09:20;5.40;99.90
37788;DHT22;23627;53.302;-6.362;2023-01-15T11:11:47;5.40;99.90
37788;DHT22;23627;53.302;-6.362;2023-01-15T11:14:38;5.50;99.90
37788;DHT22;23627;53.302;-6.362;2023-01-15T11:17:23;5.50;99.90
37788;DHT22;23627;53.302;-6.362;2023-01-15T11:22:39;5.60;99.90
37788;DHT22;23627;53.302;-6.362;2023-01-15T11:25:05;5.60;99.90
37788;DHT22;23627;53.302;-6.362;2023-01-15T11:27:33;5.60;99.90
37788;DHT22;23627;53.302;-6.362;2023-01-15T11:30:00;5.70;99.90
37788;DHT22;23627;53.302;-6.362;2023-01-15T11:32:28;5.60;99.90
37788;DHT22;23627;53.302;-6.362;2023-01-15T11:34:55;5.60;99.90
37788;DHT22;23627;53.302;-6.362;2023-01-15T11:37:21;5.60;99.90
37788;DHT22;23627;53.302;-6.362;2023-01-15T11:39:59;5.60;99.90
37788;DHT22;23627;53.302;-6.362;2023-01-15T11:42:36;5.60;99.90
37788;DHT22;23627;53.302;-6.362;2023-01-15T11:45:21;5.60;99.90
37788;DHT22;23627;53.302;-6.362;2023-01-15T11:48:15;5.60;99.90
37788;DHT22;23627;53.302;-6.362;2023-01-15T11:51:03;5.60;99.90
37788;DHT22;23627;53.302;-6.362;2023-01-15T11:53:31;5.60;99.90
37788;DHT22;23627;53.302;-6.362;2023-01-15T11:56:04;5.60;99.90
37788;DHT22;23627;53.302;-6.362;2023-01-15T11:58:53;5.60;99.90
37788;DHT22;23627;53.302;-6.362;2023-01-15T12:01:52;5.70;99.90
37788;DHT22;23627;53.302;-6.362;2023-01-15T12:04:23;5.70;99.90
37788;DHT22;23627;53.302;-6.362;2023-01-15T12:06:49;5.70;99.90
37788;DHT22;23627;53.302;-6.362;2023-01-15T12:09:33;5.70;99.90
37788;DHT22;23627;53.302;-6.362;2023-01-15T12:14:40;5.70;99.90
37788;DHT22;23627;53.302;-6.362;2023-01-15T12:22:20;5.70;99.90
37788;DHT22;23627;53.302;-6.362;2023-01-15T12:25:11;5.70;99.90
37788;DHT22;23627;53.302;-6.362;2023-01-15T12:30:23;5.70;99.90
37788;DHT22;23627;53.302;-6.362;2023-01-15T12:32:52;5.70;99.90
37788;DHT22;23627;53.302;-6.362;2023-01-15T12:35:30;5.70;99.90
37788;DHT22;23627;53.302;-6.362;2023-01-15T12:40:53;5.70;99.90
37788;DHT22;23627;53.302;-6.362;2023-01-15T12:43:26;5.80;99.90
37788;DHT22;23627;53.302;-6.362;2023-01-15T12:46:17;5.80;99.90
37788;DHT22;23627;53.302;-6.362;2023-01-15T12:51:27;5.90;99.90
37788;DHT22;23627;53.302;-6.362;2023-01-15T12:53:59;5.80;99.90
37788;DHT22;23627;53.302;-6.362;2023-01-15T12:56:36;5.90;99.90
37788;DHT22;23627;53.302;-6.362;2023-01-15T12:59:09;5.90;99.90
37788;DHT22;23627;53.302;-6.362;2023-01-15T13:06:40;6.00;99.90
37788;DHT22;23627;53.302;-6.362;2023-01-15T13:09:10;6.00;99.90
37788;DHT22;23627;53.302;-6.362;2023-01-15T13:11:38;6.00;99.90
37788;DHT22;23627;53.302;-6.362;2023-01-15T13:14:08;6.00;99.90
37788;DHT22;23627;53.302;-6.362;2023-01-15T13:16:40;6.00;99.90
37788;DHT22;23627;53.302;-6.362;2023-01-15T13:19:18;6.00;99.90
37788;DHT22;23627;53.302;-6.362;2023-01-15T13:21:46;6.00;99.90
37788;DHT22;23627;53.302;-6.362;2023-01-15T13:32:11;6.00;99.90
37788;DHT22;23627;53.302;-6.362;2023-01-15T13:34:49;6.00;99.90
37788;DHT22;23627;53.302;-6.362;2023-01-15T13:37:26;6.00;99.90
37788;DHT22;23627;53.302;-6.362;2023-01-15T13:40:17;6.00;99.90
37788;DHT22;23627;53.302;-6.362;2023-01-15T13:42:38;6.00;99.90
37788;DHT22;23627;53.302;-6.362;2023-01-15T13:47:37;6.10;99.90
37788;DHT22;23627;53.302;-6.362;2023-01-15T13:50:05;6.20;99.90
37788;DHT22;23627;53.302;-6.362;2023-01-15T13:52:35;6.20;99.90
37788;DHT22;23627;53.302;-6.362;2023-01-15T13:59:59;6.30;99.90
37788;DHT22;23627;53.302;-6.362;2023-01-15T14:02:28;6.30;99.90
37788;DHT22;23627;53.302;-6.362;2023-01-15T14:04:55;6.30;99.90
37788;DHT22;23627;53.302;-6.362;2023-01-15T14:07:31;6.30;99.90
37788;DHT22;23627;53.302;-6.362;2023-01-15T14:23:18;6.30;99.90
37788;DHT22;23627;53.302;-6.362;2023-01-15T14:25:53;6.30;99.90
37788;DHT22;23627;53.302;-6.362;2023-01-15T14:41:56;6.20;99.90
37788;DHT22;23627;53.302;-6.362;2023-01-15T14:44:41;6.20;99.90
37788;DHT22;23627;53.302;-6.362;2023-01-15T14:47:11;6.20;99.90
37788;DHT22;23627;53.302;-6.362;2023-01-15T14:49:43;6.20;99.90
37788;DHT22;23627;53.302;-6.362;2023-01-15T14:52:19;6.20;99.90
37788;DHT22;23627;53.302;-6.362;2023-01-15T14:54:45;6.20;99.90
37788;DHT22;23627;53.302;-6.362;2023-01-15T14:57:11;6.20;99.90
37788;DHT22;23627;53.302;-6.362;2023-01-15T14:59:44;6.20;99.90
37788;DHT22;23627;53.302;-6.362;2023-01-15T15:02:21;6.20;99.90
37788;DHT22;23627;53.302;-6.362;2023-01-15T15:04:52;6.10;99.90
37788;DHT22;23627;53.302;-6.362;2023-01-15T15:07:22;6.10;99.90
37788;DHT22;23627;53.302;-6.362;2023-01-15T15:09:52;6.00;99.90
37788;DHT22;23627;53.302;-6.362;2023-01-15T15:14:59;6.00;99.90
37788;DHT22;23627;53.302;-6.362;2023-01-15T15:17:30;6.00;99.90
37788;DHT22;23627;53.302;-6.362;2023-01-15T15:19:59;6.00;99.90
37788;DHT22;23627;53.302;-6.362;2023-01-15T15:22:27;5.90;99.90
37788;DHT22;23627;53.302;-6.362;2023-01-15T15:24:57;5.90;99.90
37788;DHT22;23627;53.302;-6.362;2023-01-15T15:27:25;5.90;99.90
37788;DHT22;23627;53.302;-6.362;2023-01-15T15:29:51;5.90;99.90
37788;DHT22;23627;53.302;-6.362;2023-01-15T15:32:26;5.90;99.90
37788;DHT22;23627;53.302;-6.362;2023-01-15T15:34:52;5.90;99.90
37788;DHT22;23627;53.302;-6.362;2023-01-15T15:42:13;5.90;99.90
37788;DHT22;23627;53.302;-6.362;2023-01-15T15:45:00;5.90;99.90
37788;DHT22;23627;53.302;-6.362;2023-01-15T15:47:44;5.90;99.90
37788;DHT22;23627;53.302;-6.362;2023-01-15T15:50:33;5.90;99.90
37788;DHT22;23627;53.302;-6.362;2023-01-15T15:52:59;5.90;99.90
37788;DHT22;23627;53.302;-6.362;2023-01-15T15:55:41;5.90;99.90
37788;DHT22;23627;53.302;-6.362;2023-01-15T15:58:10;5.90;99.90
37788;DHT22;23627;53.302;-6.362;2023-01-15T16:00:40;5.90;99.90
37788;DHT22;23627;53.302;-6.362;2023-01-15T16:03:14;5.90;99.90
37788;DHT22;23627;53.302;-6.362;2023-01-15T16:05:41;5.90;99.90
37788;DHT22;23627;53.302;-6.362;2023-01-15T16:08:16;5.80;99.90
37788;DHT22;23627;53.302;-6.362;2023-01-15T16:10:42;5.80;99.90
37788;DHT22;23627;53.302;-6.362;2023-01-15T16:13:11;5.80;99.90
37788;DHT22;23627;53.302;-6.362;2023-01-15T16:15:38;5.80;99.90
37788;DHT22;23627;53.302;-6.362;2023-01-15T16:18:04;5.80;99.90
37788;DHT22;23627;53.302;-6.362;2023-01-15T16:20:30;5.70;99.90
37788;DHT22;23627;53.302;-6.362;2023-01-15T16:22:57;5.70;99.90
37788;DHT22;23627;53.302;-6.362;2023-01-15T16:25:25;5.70;99.90
37788;DHT22;23627;53.302;-6.362;2023-01-15T16:27:51;5.70;99.90
37788;DHT22;23627;53.302;-6.362;2023-01-15T16:30:17;5.70;99.90
37788;DHT22;23627;53.302;-6.362;2023-01-15T16:32:43;5.60;99.90
37788;DHT22;23627;53.302;-6.362;2023-01-15T16:35:19;5.60;99.90
37788;DHT22;23627;53.302;-6.362;2023-01-15T16:37:52;5.60;99.90
37788;DHT22;23627;53.302;-6.362;2023-01-15T16:40:29;5.60;99.90
37788;DHT22;23627;53.302;-6.362;2023-01-15T16:43:05;5.60;99.90
37788;DHT22;23627;53.302;-6.362;2023-01-15T16:45:31;5.50;99.90
37788;DHT22;23627;53.302;-6.362;2023-01-15T16:47:59;5.50;99.90
37788;DHT22;23627;53.302;-6.362;2023-01-15T16:50:26;5.50;99.90
37788;DHT22;23627;53.302;-6.362;2023-01-15T16:52:56;5.50;99.90
37788;DHT22;23627;53.302;-6.362;2023-01-15T16:58:21;5.50;99.90
37788;DHT22;23627;53.302;-6.362;2023-01-15T17:00:51;5.50;99.90
37788;DHT22;23627;53.302;-6.362;2023-01-15T17:03:21;5.40;99.90
37788;DHT22;23627;53.302;-6.362;2023-01-15T17:05:49;5.40;99.90
37788;DHT22;23627;53.302;-6.362;2023-01-15T17:08:18;5.40;99.90
37788;DHT22;23627;53.302;-6.362;2023-01-15T17:10:54;5.40;99.90
37788;DHT22;23627;53.302;-6.362;2023-01-15T17:13:20;5.40;99.90
37788;DHT22;23627;53.302;-6.362;2023-01-15T17:15:59;5.40;99.90
37788;DHT22;23627;53.302;-6.362;2023-01-15T17:18:25;5.40;99.90
37788;DHT22;23627;53.302;-6.362;2023-01-15T17:20:51;5.40;99.90
37788;DHT22;23627;53.302;-6.362;2023-01-15T17:23:18;5.40;99.90
37788;DHT22;23627;53.302;-6.362;2023-01-15T17:25:45;5.40;99.90
37788;DHT22;23627;53.302;-6.362;2023-01-15T17:28:12;5.40;99.90
37788;DHT22;23627;53.302;-6.362;2023-01-15T17:30:37;5.30;99.90
37788;DHT22;23627;53.302;-6.362;2023-01-15T17:33:04;5.30;99.90
37788;DHT22;23627;53.302;-6.362;2023-01-15T17:35:31;5.30;99.90
37788;DHT22;23627;53.302;-6.362;2023-01-15T17:37:56;5.30;99.90
37788;DHT22;23627;53.302;-6.362;2023-01-15T17:40:22;5.30;99.90
37788;DHT22;23627;53.302;-6.362;2023-01-15T17:42:48;5.30;99.90
37788;DHT22;23627;53.302;-6.362;2023-01-15T17:45:22;5.40;99.90
37788;DHT22;23627;53.302;-6.362;2023-01-15T17:47:47;5.30;99.90
37788;DHT22;23627;53.302;-6.362;2023-01-15T17:50:14;5.40;99.90
37788;DHT22;23627;53.302;-6.362;2023-01-15T17:52:40;5.40;99.90
37788;DHT22;23627;53.302;-6.362;2023-01-15T17:55:14;5.40;99.90
37788;DHT22;23627;53.302;-6.362;2023-01-15T17:57:58;5.40;99.90
37788;DHT22;23627;53.302;-6.362;2023-01-15T18:05:59;5.40;99.90
37788;DHT22;23627;53.302;-6.362;2023-01-15T18:08:25;5.40;99.90
37788;DHT22;23627;53.302;-6.362;2023-01-15T18:10:50;5.40;99.90
37788;DHT22;23627;53.302;-6.362;2023-01-15T18:13:16;5.40;99.90
37788;DHT22;23627;53.302;-6.362;2023-01-15T18:15:43;5.40;99.90
37788;DHT22;23627;53.302;-6.362;2023-01-15T18:18:09;5.40;99.90
37788;DHT22;23627;53.302;-6.362;2023-01-15T18:20:35;5.40;99.90
37788;DHT22;23627;53.302;-6.362;2023-01-15T18:23:01;5.40;99.90
37788;DHT22;23627;53.302;-6.362;2023-01-15T18:25:26;5.40;99.90
37788;DHT22;23627;53.302;-6.362;2023-01-15T18:27:52;5.40;99.90
37788;DHT22;23627;53.302;-6.362;2023-01-15T18:30:18;5.40;99.90
37788;DHT22;23627;53.302;-6.362;2023-01-15T18:32:43;5.30;99.90
37788;DHT22;23627;53.302;-6.362;2023-01-15T18:35:10;5.30;99.90
37788;DHT22;23627;53.302;-6.362;2023-01-15T18:37:36;5.30;99.90
37788;DHT22;23627;53.302;-6.362;2023-01-15T18:40:02;5.30;99.90
37788;DHT22;23627;53.302;-6.362;2023-01-15T18:42:27;5.30;99.90
37788;DHT22;23627;53.302;-6.362;2023-01-15T18:45:11;5.30;99.90
37788;DHT22;23627;53.302;-6.362;2023-01-15T18:47:58;5.20;99.90
37788;DHT22;23627;53.302;-6.362;2023-01-15T18:50:27;5.20;99.90
37788;DHT22;23627;53.302;-6.362;2023-01-15T18:52:53;5.20;99.90
37788;DHT22;23627;53.302;-6.362;2023-01-15T18:55:20;5.20;99.90
37788;DHT22;23627;53.302;-6.362;2023-01-15T18:57:48;5.20;99.90
37788;DHT22;23627;53.302;-6.362;2023-01-15T19:00:13;5.20;99.90
37788;DHT22;23627;53.302;-6.362;2023-01-15T19:02:39;5.20;99.90
37788;DHT22;23627;53.302;-6.362;2023-01-15T19:05:05;5.20;99.90
37788;DHT22;23627;53.302;-6.362;2023-01-15T19:07:31;5.20;99.90
37788;DHT22;23627;53.302;-6.362;2023-01-15T19:09:59;5.20;99.90
37788;DHT22;23627;53.302;-6.362;2023-01-15T19:12:25;5.20;99.90
37788;DHT22;23627;53.302;-6.362;2023-01-15T19:14:50;5.20;99.90
37788;DHT22;23627;53.302;-6.362;2023-01-15T19:17:54;5.20;99.90
37788;DHT22;23627;53.302;-6.362;2023-01-15T19:20:39;5.20;99.90
37788;DHT22;23627;53.302;-6.362;2023-01-15T19:23:04;5.20;99.90
37788;DHT22;23627;53.302;-6.362;2023-01-15T19:25:41;5.20;99.90
37788;DHT22;23627;53.302;-6.362;2023-01-15T19:28:08;5.20;99.90
37788;DHT22;23627;53.302;-6.362;2023-01-15T19:30:35;5.20;99.90
37788;DHT22;23627;53.302;-6.362;2023-01-15T19:33:01;5.20;99.90
37788;DHT22;23627;53.302;-6.362;2023-01-15T19:35:27;5.20;99.90
37788;DHT22;23627;53.302;-6.362;2023-01-15T19:37:53;5.20;99.90
37788;DHT22;23627;53.302;-6.362;2023-01-15T19:40:19;5.20;99.90
37788;DHT22;23627;53.302;-6.362;2023-01-15T19:42:48;5.20;99.90
37788;DHT22;23627;53.302;-6.362;2023-01-15T19:45:32;5.20;99.90
37788;DHT22;23627;53.302;-6.362;2023-01-15T19:48:16;5.20;99.90
37788;DHT22;23627;53.302;-6.362;2023-01-15T19:51:01;5.20;99.90
37788;DHT22;23627;53.302;-6.362;2023-01-15T19:53:27;5.20;99.90
37788;DHT22;23627;53.302;-6.362;2023-01-15T19:55:53;5.20;99.90
37788;DHT22;23627;53.302;-6.362;2023-01-15T19:58:19;5.20;99.90
37788;DHT22;23627;53.302;-6.362;2023-01-15T20:00:45;5.20;99.90
37788;DHT22;23627;53.302;-6.362;2023-01-15T20:03:14;5.20;99.90
37788;DHT22;23627;53.302;-6.362;2023-01-15T20:05:40;5.20;99.90
37788;DHT22;23627;53.302;-6.362;2023-01-15T20:08:06;5.20;99.90
37788;DHT22;23627;53.302;-6.362;2023-01-15T20:10:39;5.20;99.90
37788;DHT22;23627;53.302;-6.362;2023-01-15T20:13:24;5.20;99.90
37788;DHT22;23627;53.302;-6.362;2023-01-15T20:16:12;5.20;99.90
37788;DHT22;23627;53.302;-6.362;2023-01-15T20:18:38;5.20;99.90
37788;DHT22;23627;53.302;-6.362;2023-01-15T20:21:04;5.20;99.90
37788;DHT22;23627;53.302;-6.362;2023-01-15T20:23:30;5.20;99.90
37788;DHT22;23627;53.302;-6.362;2023-01-15T20:25:59;5.20;99.90
37788;DHT22;23627;53.302;-6.362;2023-01-15T20:28:28;5.20;99.90
37788;DHT22;23627;53.302;-6.362;2023-01-15T20:30:53;5.20;99.90
37788;DHT22;23627;53.302;-6.362;2023-01-15T20:33:20;5.20;99.90
37788;DHT22;23627;53.302;-6.362;2023-01-15T20:35:46;5.20;99.90
37788;DHT22;23627;53.302;-6.362;2023-01-15T20:38:13;5.20;99.90
37788;DHT22;23627;53.302;-6.362;2023-01-15T20:40:38;5.20;99.90
37788;DHT22;23627;53.302;-6.362;2023-01-15T20:43:04;5.10;99.90
37788;DHT22;23627;53.302;-6.362;2023-01-15T20:45:48;5.10;99.90
37788;DHT22;23627;53.302;-6.362;2023-01-15T20:48:16;5.10;99.90
37788;DHT22;23627;53.302;-6.362;2023-01-15T20:51:00;5.10;99.90
37788;DHT22;23627;53.302;-6.362;2023-01-15T20:53:34;5.10;99.90
37788;DHT22;23627;53.302;-6.362;2023-01-15T20:56:00;5.10;99.90